sensor_id;sensor_type;location;lat;lon;timestamp;temperature;humidity
10411;DHT22;5251;52.112;8.606;2023-03-21T00:01:52;12.10;99.90
10411;DHT22;5251;52.112;8.606;2023-03-21T00:04:18;12.10;99.90
10411;DHT22;5251;52.112;8.606;2023-03-21T00:06:43;12.00;99.90
10411;DHT22;5251;52.112;8.606;2023-03-21T00:09:09;12.10;99.90
10411;DHT22;5251;52.112;8.606;2023-03-21T00:11:35;12.10;99.90
10411;DHT22;5251;52.112;8.606;2023-03-21T00:14:01;12.10;99.90
10411;DHT22;5251;52.112;8.606;2023-03-21T00:16:27;12.10;99.90
10411;DHT22;5251;52.112;8.606;2023-03-21T00:18:55;12.10;99.90
10411;DHT22;5251;52.112;8.606;2023-03-21T00:21:22;12.10;99.90
10411;DHT22;5251;52.112;8.606;2023-03-21T00:23:59;12.10;99.90
10411;DHT22;5251;52.112;8.606;2023-03-21T00:26:24;12.10;99.90
10411;DHT22;5251;52.112;8.606;2023-03-21T00:28:50;12.00;99.90
10411;DHT22;5251;52.112;8.606;2023-03-21T00:31:16;12.00;99.90
10411;DHT22;5251;52.112;8.606;2023-03-21T00:33:42;12.10;99.90
10411;DHT22;5251;52.112;8.606;2023-03-21T00:36:09;12.10;99.90
10411;DHT22;5251;52.112;8.606;2023-03-21T00:38:36;12.10;99.90
10411;DHT22;5251;52.112;8.606;2023-03-21T00:41:05;12.10;99.90
10411;DHT22;5251;52.112;8.606;2023-03-21T00:43:32;12.10;99.90
10411;DHT22;5251;52.112;8.606;2023-03-21T00:45:58;12.10;99.90
10411;DHT22;5251;52.112;8.606;2023-03-21T00:48:24;12.10;99.90
10411;DHT22;5251;52.112;8.606;2023-03-21T00:50:52;12.10;99.90
10411;DHT22;5251;52.112;8.606;2023-03-21T00:53:19;12.10;99.90
10411;DHT22;5251;52.112;8.606;2023-03-21T00:55:44;12.10;99.90
10411;DHT22;5251;52.112;8.606;2023-03-21T00:58:10;12.10;99.90
10411;DHT22;5251;52.112;8.606;2023-03-21T01:00:36;12.10;99.90
10411;DHT22;5251;52.112;8.606;2023-03-21T01:03:04;12.10;99.90
10411;DHT22;5251;52.112;8.606;2023-03-21T01:05:37;12.10;99.90
10411;DHT22;5251;52.112;8.606;2023-03-21T01:08:22;12.10;99.90
10411;DHT22;5251;52.112;8.606;2023-03-21T01:10:50;12.10;99.90
10411;DHT22;5251;52.112;8.606;2023-03-21T01:13:17;12.10;99.90
10411;DHT22;5251;52.112;8.606;2023-03-21T01:15:46;12.10;99.90
10411;DHT22;5251;52.112;8.606;2023-03-21T01:18:12;12.10;99.90
10411;DHT22;5251;52.112;8.606;2023-03-21T01:20:40;12.10;99.90
10411;DHT22;5251;52.112;8.606;2023-03-21T01:23:06;12.10;99.90
10411;DHT22;5251;52.112;8.606;2023-03-21T01:25:32;12.10;99.90
10411;DHT22;5251;52.112;8.606;2023-03-21T01:27:58;12.10;99.90
10411;DHT22;5251;52.112;8.606;2023-03-21T01:30:23;12.10;99.90
10411;DHT22;5251;52.112;8.606;2023-03-21T01:32:49;12.10;99.90
10411;DHT22;5251;52.112;8.606;2023-03-21T01:35:15;12.10;99.90
10411;DHT22;5251;52.112;8.606;2023-03-21T01:37:40;12.10;99.90
10411;DHT22;5251;52.112;8.606;2023-03-21T01:40:10;12.10;99.90
10411;DHT22;5251;52.112;8.606;2023-03-21T01:42:38;12.10;99.90
10411;DHT22;5251;52.112;8.606;2023-03-21T01:46:02;12.10;99.90
10411;DHT22;5251;52.112;8.606;2023-03-21T01:47:52;12.10;99.90
10411;DHT22;5251;52.112;8.606;2023-03-21T01:50:17;12.10;99.90
10411;DHT22;5251;52.112;8.606;2023-03-21T01:52:47;12.10;99.90
10411;DHT22;5251;52.112;8.606;2023-03-21T01:55:15;12.10;99.90
10411;DHT22;5251;52.112;8.606;2023-03-21T01:57:48;12.10;99.90
10411;DHT22;5251;52.112;8.606;2023-03-21T02:00:17;12.10;99.90
10411;DHT22;5251;52.112;8.606;2023-03-21T02:02:45;12.10;99.90
10411;DHT22;5251;52.112;8.606;2023-03-21T02:05:53;12.10;99.90
10411;DHT22;5251;52.112;8.606;2023-03-21T02:08:21;12.10;99.90
10411;DHT22;5251;52.112;8.606;2023-03-21T02:10:48;12.20;99.90
10411;DHT22;5251;52.112;8.606;2023-03-21T02:13:14;12.10;99.90
10411;DHT22;5251;52.112;8.606;2023-03-21T02:15:45;12.10;99.90
10411;DHT22;5251;52.112;8.606;2023-03-21T02:24:08;12.20;99.90
10411;DHT22;5251;52.112;8.606;2023-03-21T02:37:35;12.20;99.90
10411;DHT22;5251;52.112;8.606;2023-03-21T02:40:08;12.20;99.90
10411;DHT22;5251;52.112;8.606;2023-03-21T02:43:09;12.10;99.90
10411;DHT22;5251;52.112;8.606;2023-03-21T02:45:53;12.20;99.90
10411;DHT22;5251;52.112;8.606;2023-03-21T02:48:26;12.20;99.90
10411;DHT22;5251;52.112;8.606;2023-03-21T02:50:56;12.20;99.90
10411;DHT22;5251;52.112;8.606;2023-03-21T02:53:25;12.20;99.90
10411;DHT22;5251;52.112;8.606;2023-03-21T02:55:53;12.20;99.90
10411;DHT22;5251;52.112;8.606;2023-03-21T02:58:22;12.10;99.90
10411;DHT22;5251;52.112;8.606;2023-03-21T03:00:49;12.20;99.90
10411;DHT22;5251;52.112;8.606;2023-03-21T03:03:16;12.20;99.90
10411;DHT22;5251;52.112;8.606;2023-03-21T03:05:47;12.20;99.90
10411;DHT22;5251;52.112;8.606;2023-03-21T03:13:52;12.20;99.90
10411;DHT22;5251;52.112;8.606;2023-03-21T03:19:43;12.20;99.90
10411;DHT22;5251;52.112;8.606;2023-03-21T03:22:16;12.20;99.90
10411;DHT22;5251;52.112;8.606;2023-03-21T03:25:04;12.20;99.90
10411;DHT22;5251;52.112;8.606;2023-03-21T03:27:34;12.10;99.90
10411;DHT22;5251;52.112;8.606;2023-03-21T03:30:03;12.10;99.90
10411;DHT22;5251;52.112;8.606;2023-03-21T03:32:56;12.10;99.90
10411;DHT22;5251;52.112;8.606;2023-03-21T03:35:24;12.10;99.90
10411;DHT22;5251;52.112;8.606;2023-03-21T03:37:55;12.10;99.90
10411;DHT22;5251;52.112;8.606;2023-03-21T03:40:39;12.10;99.90
10411;DHT22;5251;52.112;8.606;2023-03-21T03:43:14;12.10;99.90
10411;DHT22;5251;52.112;8.606;2023-03-21T03:45:48;12.10;99.90
10411;DHT22;5251;52.112;8.606;2023-03-21T03:48:17;12.10;99.90
10411;DHT22;5251;52.112;8.606;2023-03-21T03:53:34;12.10;99.90
10411;DHT22;5251;52.112;8.606;2023-03-21T03:56:01;12.10;99.90
10411;DHT22;5251;52.112;8.606;2023-03-21T03:58:28;12.00;99.90
10411;DHT22;5251;52.112;8.606;2023-03-21T04:00:55;12.10;99.90
10411;DHT22;5251;52.112;8.606;2023-03-21T04:03:21;12.10;99.90
10411;DHT22;5251;52.112;8.606;2023-03-21T04:05:47;12.10;99.90
10411;DHT22;5251;52.112;8.606;2023-03-21T04:08:14;12.00;99.90
10411;DHT22;5251;52.112;8.606;2023-03-21T04:10:41;12.00;99.90
10411;DHT22;5251;52.112;8.606;2023-03-21T04:13:07;12.10;99.90
10411;DHT22;5251;52.112;8.606;2023-03-21T04:15:33;12.00;99.90
10411;DHT22;5251;52.112;8.606;2023-03-21T04:17:58;12.00;99.90
10411;DHT22;5251;52.112;8.606;2023-03-21T04:20:24;12.10;99.90
10411;DHT22;5251;52.112;8.606;2023-03-21T04:22:50;12.10;99.90
10411;DHT22;5251;52.112;8.606;2023-03-21T04:25:16;12.10;99.90
10411;DHT22;5251;52.112;8.606;2023-03-21T04:27:42;12.10;99.90
10411;DHT22;5251;52.112;8.606;2023-03-21T04:30:10;12.10;99.90
10411;DHT22;5251;52.112;8.606;2023-03-21T04:32:37;12.10;99.90
10411;DHT22;5251;52.112;8.606;2023-03-21T04:35:05;12.20;99.90
10411;DHT22;5251;52.112;8.606;2023-03-21T04:37:31;12.20;99.90
10411;DHT22;5251;52.112;8.606;2023-03-21T04:39:58;12.10;99.90
10411;DHT22;5251;52.112;8.606;2023-03-21T04:42:24;12.10;99.90
10411;DHT22;5251;52.112;8.606;2023-03-21T04:44:49;12.10;99.90
10411;DHT22;5251;52.112;8.606;2023-03-21T04:47:15;12.20;99.90
10411;DHT22;5251;52.112;8.606;2023-03-21T04:49:42;12.10;99.90
10411;DHT22;5251;52.112;8.606;2023-03-21T04:52:07;12.10;99.90
10411;DHT22;5251;52.112;8.606;2023-03-21T04:54:33;12.10;99.90
10411;DHT22;5251;52.112;8.606;2023-03-21T04:56:59;12.10;99.90
10411;DHT22;5251;52.112;8.606;2023-03-21T04:59:24;12.10;99.90
10411;DHT22;5251;52.112;8.606;2023-03-21T05:01:50;12.10;99.90
10411;DHT22;5251;52.112;8.606;2023-03-21T05:04:16;12.10;99.90
10411;DHT22;5251;52.112;8.606;2023-03-21T05:06:43;12.10;99.90
10411;DHT22;5251;52.112;8.606;2023-03-21T05:09:10;12.10;99.90
10411;DHT22;5251;52.112;8.606;2023-03-21T05:11:38;12.10;99.90
10411;DHT22;5251;52.112;8.606;2023-03-21T05:14:06;12.10;99.90
10411;DHT22;5251;52.112;8.606;2023-03-21T05:16:33;12.10;99.90
10411;DHT22;5251;52.112;8.606;2023-03-21T05:19:01;12.20;99.90
10411;DHT22;5251;52.112;8.606;2023-03-21T05:21:32;12.20;99.90
10411;DHT22;5251;52.112;8.606;2023-03-21T05:24:13;12.20;99.90
10411;DHT22;5251;52.112;8.606;2023-03-21T05:26:39;12.20;99.90
10411;DHT22;5251;52.112;8.606;2023-03-21T05:29:06;12.10;99.90
10411;DHT22;5251;52.112;8.606;2023-03-21T05:31:32;12.20;99.90
10411;DHT22;5251;52.112;8.606;2023-03-21T05:33:58;12.20;99.90
10411;DHT22;5251;52.112;8.606;2023-03-21T05:36:24;12.20;99.90
10411;DHT22;5251;52.112;8.606;2023-03-21T05:38:49;12.20;99.90
10411;DHT22;5251;52.112;8.606;2023-03-21T05:41:16;12.20;99.90
10411;DHT22;5251;52.112;8.606;2023-03-21T05:43:42;12.20;99.90
10411;DHT22;5251;52.112;8.606;2023-03-21T05:46:09;12.20;99.90
10411;DHT22;5251;52.112;8.606;2023-03-21T05:48:36;12.30;99.90
10411;DHT22;5251;52.112;8.606;2023-03-21T05:51:02;12.30;99.90
10411;DHT22;5251;52.112;8.606;2023-03-21T05:53:28;12.30;99.90
10411;DHT22;5251;52.112;8.606;2023-03-21T05:55:54;12.30;99.90
10411;DHT22;5251;52.112;8.606;2023-03-21T05:58:19;12.40;99.90
10411;DHT22;5251;52.112;8.606;2023-03-21T06:00:45;12.40;99.90
10411;DHT22;5251;52.112;8.606;2023-03-21T06:03:11;12.40;99.90
10411;DHT22;5251;52.112;8.606;2023-03-21T06:05:37;12.40;99.90
10411;DHT22;5251;52.112;8.606;2023-03-21T06:08:02;12.40;99.90
10411;DHT22;5251;52.112;8.606;2023-03-21T06:10:28;12.40;99.90
10411;DHT22;5251;52.112;8.606;2023-03-21T06:12:53;12.50;99.90
10411;DHT22;5251;52.112;8.606;2023-03-21T06:15:19;12.50;99.90
10411;DHT22;5251;52.112;8.606;2023-03-21T06:17:45;12.60;99.90
10411;DHT22;5251;52.112;8.606;2023-03-21T06:20:11;12.70;99.90
10411;DHT22;5251;52.112;8.606;2023-03-21T06:22:37;12.70;99.90
10411;DHT22;5251;52.112;8.606;2023-03-21T06:25:03;12.70;99.90
10411;DHT22;5251;52.112;8.606;2023-03-21T06:27:29;12.70;99.90
10411;DHT22;5251;52.112;8.606;2023-03-21T06:29:55;12.80;99.90
10411;DHT22;5251;52.112;8.606;2023-03-21T06:32:22;12.80;99.90
10411;DHT22;5251;52.112;8.606;2023-03-21T06:34:48;12.90;99.90
10411;DHT22;5251;52.112;8.606;2023-03-21T06:37:14;13.00;99.90
10411;DHT22;5251;52.112;8.606;2023-03-21T06:39:39;13.00;99.90
10411;DHT22;5251;52.112;8.606;2023-03-21T06:42:05;13.00;99.90
10411;DHT22;5251;52.112;8.606;2023-03-21T06:44:31;13.10;99.90
10411;DHT22;5251;52.112;8.606;2023-03-21T06:46:56;13.10;99.90
10411;DHT22;5251;52.112;8.606;2023-03-21T06:49:22;13.20;99.90
10411;DHT22;5251;52.112;8.606;2023-03-21T06:51:48;13.20;99.90
10411;DHT22;5251;52.112;8.606;2023-03-21T06:54:13;13.20;99.90
10411;DHT22;5251;52.112;8.606;2023-03-21T06:56:41;13.30;99.90
10411;DHT22;5251;52.112;8.606;2023-03-21T06:59:07;13.30;99.90
10411;DHT22;5251;52.112;8.606;2023-03-21T07:01:33;13.40;99.90
10411;DHT22;5251;52.112;8.606;2023-03-21T07:03:59;13.40;99.90
10411;DHT22;5251;52.112;8.606;2023-03-21T07:06:25;13.50;99.90
10411;DHT22;5251;52.112;8.606;2023-03-21T07:08:51;13.50;99.90
10411;DHT22;5251;52.112;8.606;2023-03-21T07:11:18;13.50;99.90
10411;DHT22;5251;52.112;8.606;2023-03-21T07:13:43;13.60;99.90
10411;DHT22;5251;52.112;8.606;2023-03-21T07:16:09;13.60;99.90
10411;DHT22;5251;52.112;8.606;2023-03-21T07:18:35;13.70;99.90
10411;DHT22;5251;52.112;8.606;2023-03-21T07:21:01;13.70;99.90
10411;DHT22;5251;52.112;8.606;2023-03-21T07:23:27;13.70;99.90
10411;DHT22;5251;52.112;8.606;2023-03-21T07:25:54;13.80;99.90
10411;DHT22;5251;52.112;8.606;2023-03-21T07:28:20;13.80;99.90
10411;DHT22;5251;52.112;8.606;2023-03-21T07:30:54;13.90;99.90
10411;DHT22;5251;52.112;8.606;2023-03-21T07:33:20;13.90;99.90
10411;DHT22;5251;52.112;8.606;2023-03-21T07:35:48;13.90;99.90
10411;DHT22;5251;52.112;8.606;2023-03-21T07:38:14;13.90;99.90
10411;DHT22;5251;52.112;8.606;2023-03-21T07:40:41;14.00;99.90
10411;DHT22;5251;52.112;8.606;2023-03-21T07:43:07;14.00;99.90
10411;DHT22;5251;52.112;8.606;2023-03-21T07:45:32;14.00;99.90
10411;DHT22;5251;52.112;8.606;2023-03-21T07:47:58;14.10;99.90
10411;DHT22;5251;52.112;8.606;2023-03-21T07:50:23;14.10;99.90
10411;DHT22;5251;52.112;8.606;2023-03-21T07:52:49;14.20;99.90
10411;DHT22;5251;52.112;8.606;2023-03-21T07:55:15;14.20;99.90
10411;DHT22;5251;52.112;8.606;2023-03-21T07:57:41;14.30;99.90
10411;DHT22;5251;52.112;8.606;2023-03-21T08:00:08;14.30;99.90
10411;DHT22;5251;52.112;8.606;2023-03-21T08:02:33;14.30;99.90
10411;DHT22;5251;52.112;8.606;2023-03-21T08:04:59;14.40;99.90
10411;DHT22;5251;52.112;8.606;2023-03-21T08:07:24;14.40;99.90
10411;DHT22;5251;52.112;8.606;2023-03-21T08:09:52;14.40;99.90
10411;DHT22;5251;52.112;8.606;2023-03-21T08:12:17;14.40;99.90
10411;DHT22;5251;52.112;8.606;2023-03-21T08:14:43;14.50;99.90
10411;DHT22;5251;52.112;8.606;2023-03-21T08:17:09;14.50;99.90
10411;DHT22;5251;52.112;8.606;2023-03-21T08:19:35;14.50;99.90
10411;DHT22;5251;52.112;8.606;2023-03-21T08:22:01;14.60;99.90
10411;DHT22;5251;52.112;8.606;2023-03-21T08:24:30;14.60;99.90
10411;DHT22;5251;52.112;8.606;2023-03-21T08:26:56;14.60;99.90
10411;DHT22;5251;52.112;8.606;2023-03-21T08:29:21;14.60;99.90
10411;DHT22;5251;52.112;8.606;2023-03-21T08:31:49;14.70;99.90
10411;DHT22;5251;52.112;8.606;2023-03-21T08:34:15;14.60;99.90
10411;DHT22;5251;52.112;8.606;2023-03-21T08:36:42;14.70;99.90
10411;DHT22;5251;52.112;8.606;2023-03-21T08:39:08;14.70;99.90
10411;DHT22;5251;52.112;8.606;2023-03-21T08:41:36;14.70;99.90
10411;DHT22;5251;52.112;8.606;2023-03-21T08:44:02;14.70;99.90
10411;DHT22;5251;52.112;8.606;2023-03-21T08:46:28;14.70;99.90
10411;DHT22;5251;52.112;8.606;2023-03-21T08:48:54;14.70;99.90
10411;DHT22;5251;52.112;8.606;2023-03-21T08:51:20;14.70;99.90
10411;DHT22;5251;52.112;8.606;2023-03-21T08:53:46;14.70;99.90
10411;DHT22;5251;52.112;8.606;2023-03-21T08:56:13;14.70;99.90
10411;DHT22;5251;52.112;8.606;2023-03-21T08:58:39;14.70;99.90
10411;DHT22;5251;52.112;8.606;2023-03-21T09:01:05;14.60;99.90
10411;DHT22;5251;52.112;8.606;2023-03-21T09:03:37;14.60;99.90
10411;DHT22;5251;52.112;8.606;2023-03-21T09:06:03;14.60;99.90
10411;DHT22;5251;52.112;8.606;2023-03-21T09:08:29;14.50;99.90
10411;DHT22;5251;52.112;8.606;2023-03-21T09:10:55;14.50;99.90
10411;DHT22;5251;52.112;8.606;2023-03-21T09:13:22;14.50;99.90
10411;DHT22;5251;52.112;8.606;2023-03-21T09:15:48;14.40;99.90
10411;DHT22;5251;52.112;8.606;2023-03-21T09:18:14;14.40;99.90
10411;DHT22;5251;52.112;8.606;2023-03-21T09:20:43;14.40;99.90
10411;DHT22;5251;52.112;8.606;2023-03-21T09:23:12;14.50;99.90
10411;DHT22;5251;52.112;8.606;2023-03-21T09:25:39;14.40;99.90
10411;DHT22;5251;52.112;8.606;2023-03-21T09:28:05;14.40;99.90
10411;DHT22;5251;52.112;8.606;2023-03-21T09:30:34;14.40;99.90
10411;DHT22;5251;52.112;8.606;2023-03-21T09:33:02;14.40;99.90
10411;DHT22;5251;52.112;8.606;2023-03-21T09:35:30;14.40;99.90
10411;DHT22;5251;52.112;8.606;2023-03-21T09:37:56;14.40;99.90
10411;DHT22;5251;52.112;8.606;2023-03-21T09:40:49;14.50;99.90
10411;DHT22;5251;52.112;8.606;2023-03-21T09:43:57;14.40;99.90
10411;DHT22;5251;52.112;8.606;2023-03-21T09:49:05;14.40;99.90
10411;DHT22;5251;52.112;8.606;2023-03-21T09:51:44;14.40;99.90
10411;DHT22;5251;52.112;8.606;2023-03-21T09:54:34;14.40;99.90
10411;DHT22;5251;52.112;8.606;2023-03-21T09:57:30;14.40;99.90
10411;DHT22;5251;52.112;8.606;2023-03-21T09:59:59;14.40;99.90
10411;DHT22;5251;52.112;8.606;2023-03-21T10:02:41;14.40;99.90
10411;DHT22;5251;52.112;8.606;2023-03-21T10:07:42;14.40;99.90
10411;DHT22;5251;52.112;8.606;2023-03-21T10:10:16;14.40;99.90
10411;DHT22;5251;52.112;8.606;2023-03-21T10:12:44;14.50;99.90
10411;DHT22;5251;52.112;8.606;2023-03-21T10:15:15;14.50;99.90
10411;DHT22;5251;52.112;8.606;2023-03-21T10:17:43;14.50;99.90
10411;DHT22;5251;52.112;8.606;2023-03-21T10:20:16;14.50;99.90
10411;DHT22;5251;52.112;8.606;2023-03-21T10:22:43;14.50;99.90
10411;DHT22;5251;52.112;8.606;2023-03-21T10:25:14;14.60;99.90
10411;DHT22;5251;52.112;8.606;2023-03-21T10:27:40;14.50;99.90
10411;DHT22;5251;52.112;8.606;2023-03-21T10:30:08;14.60;99.90
10411;DHT22;5251;52.112;8.606;2023-03-21T10:32:37;14.60;99.90
10411;DHT22;5251;52.112;8.606;2023-03-21T10:35:04;14.70;99.90
10411;DHT22;5251;52.112;8.606;2023-03-21T10:37:30;14.70;99.90
10411;DHT22;5251;52.112;8.606;2023-03-21T10:39:56;14.70;99.90
10411;DHT22;5251;52.112;8.606;2023-03-21T10:42:24;14.80;99.90
10411;DHT22;5251;52.112;8.606;2023-03-21T10:44:52;14.80;99.90
10411;DHT22;5251;52.112;8.606;2023-03-21T10:47:23;14.90;99.90
10411;DHT22;5251;52.112;8.606;2023-03-21T10:49:50;14.90;99.90
10411;DHT22;5251;52.112;8.606;2023-03-21T10:52:19;15.00;99.90
10411;DHT22;5251;52.112;8.606;2023-03-21T10:54:45;15.10;99.90
10411;DHT22;5251;52.112;8.606;2023-03-21T10:57:15;15.20;99.90
10411;DHT22;5251;52.112;8.606;2023-03-21T10:59:50;15.30;99.90
10411;DHT22;5251;52.112;8.606;2023-03-21T11:02:29;15.30;99.90
10411;DHT22;5251;52.112;8.606;2023-03-21T11:04:55;15.30;99.90
10411;DHT22;5251;52.112;8.606;2023-03-21T11:07:27;15.40;99.90
10411;DHT22;5251;52.112;8.606;2023-03-21T11:09:58;15.50;99.90
10411;DHT22;5251;52.112;8.606;2023-03-21T11:14:55;15.60;99.90
10411;DHT22;5251;52.112;8.606;2023-03-21T11:17:29;15.70;99.90
10411;DHT22;5251;52.112;8.606;2023-03-21T11:19:59;15.80;99.90
10411;DHT22;5251;52.112;8.606;2023-03-21T11:22:30;15.80;99.90
10411;DHT22;5251;52.112;8.606;2023-03-21T11:25:03;15.80;99.90
10411;DHT22;5251;52.112;8.606;2023-03-21T11:27:31;15.80;99.90
10411;DHT22;5251;52.112;8.606;2023-03-21T11:29:58;15.80;99.90
10411;DHT22;5251;52.112;8.606;2023-03-21T11:32:34;15.80;99.90
10411;DHT22;5251;52.112;8.606;2023-03-21T11:37:40;15.90;99.90
10411;DHT22;5251;52.112;8.606;2023-03-21T11:42:50;15.90;99.90
10411;DHT22;5251;52.112;8.606;2023-03-21T11:45:22;15.80;99.90
10411;DHT22;5251;52.112;8.606;2023-03-21T11:47:49;15.80;99.90
10411;DHT22;5251;52.112;8.606;2023-03-21T12:01:18;15.80;99.90
10411;DHT22;5251;52.112;8.606;2023-03-21T12:06:34;15.90;99.90
10411;DHT22;5251;52.112;8.606;2023-03-21T12:26:10;15.80;99.90
10411;DHT22;5251;52.112;8.606;2023-03-21T12:35:13;15.80;99.90
10411;DHT22;5251;52.112;8.606;2023-03-21T12:37:49;15.70;99.90
10411;DHT22;5251;52.112;8.606;2023-03-21T12:45:39;15.70;99.90
10411;DHT22;5251;52.112;8.606;2023-03-21T12:48:23;15.70;99.90
10411;DHT22;5251;52.112;8.606;2023-03-21T12:50:53;15.70;99.90
10411;DHT22;5251;52.112;8.606;2023-03-21T12:56:09;15.70;99.90
10411;DHT22;5251;52.112;8.606;2023-03-21T12:58:51;15.70;99.90
10411;DHT22;5251;52.112;8.606;2023-03-21T13:01:20;15.70;99.90
10411;DHT22;5251;52.112;8.606;2023-03-21T13:06:25;15.70;99.90
10411;DHT22;5251;52.112;8.606;2023-03-21T13:09:09;15.70;99.90
10411;DHT22;5251;52.112;8.606;2023-03-21T13:11:39;15.80;99.90
10411;DHT22;5251;52.112;8.606;2023-03-21T13:14:20;15.80;99.90
10411;DHT22;5251;52.112;8.606;2023-03-21T13:16:57;15.80;99.90
10411;DHT22;5251;52.112;8.606;2023-03-21T13:19:43;15.90;99.90
10411;DHT22;5251;52.112;8.606;2023-03-21T13:22:19;15.80;99.90
10411;DHT22;5251;52.112;8.606;2023-03-21T13:24:58;15.80;99.90
10411;DHT22;5251;52.112;8.606;2023-03-21T13:30:32;15.80;99.90
10411;DHT22;5251;52.112;8.606;2023-03-21T13:33:04;15.80;99.90
10411;DHT22;5251;52.112;8.606;2023-03-21T13:35:43;15.90;99.90
10411;DHT22;5251;52.112;8.606;2023-03-21T13:40:50;15.90;99.90
10411;DHT22;5251;52.112;8.606;2023-03-21T13:43:42;16.00;99.90
10411;DHT22;5251;52.112;8.606;2023-03-21T13:46:35;16.10;99.90
10411;DHT22;5251;52.112;8.606;2023-03-21T13:49:13;16.10;99.90
10411;DHT22;5251;52.112;8.606;2023-03-21T13:51:50;16.20;99.90
10411;DHT22;5251;52.112;8.606;2023-03-21T13:54:26;16.30;99.90
10411;DHT22;5251;52.112;8.606;2023-03-21T13:56:59;16.30;99.90
10411;DHT22;5251;52.112;8.606;2023-03-21T14:02:33;16.40;99.90
10411;DHT22;5251;52.112;8.606;2023-03-21T14:05:15;16.50;99.90
10411;DHT22;5251;52.112;8.606;2023-03-21T14:07:44;16.50;99.90
10411;DHT22;5251;52.112;8.606;2023-03-21T14:10:23;16.60;99.90
10411;DHT22;5251;52.112;8.606;2023-03-21T14:12:50;16.60;99.90
10411;DHT22;5251;52.112;8.606;2023-03-21T14:15:23;16.60;99.90
10411;DHT22;5251;52.112;8.606;2023-03-21T14:17:54;16.60;99.90
10411;DHT22;5251;52.112;8.606;2023-03-21T14:20:23;16.70;99.90
10411;DHT22;5251;52.112;8.606;2023-03-21T14:22:49;16.70;99.90
10411;DHT22;5251;52.112;8.606;2023-03-21T14:25:18;16.70;99.90
10411;DHT22;5251;52.112;8.606;2023-03-21T14:27:47;16.80;99.90
10411;DHT22;5251;52.112;8.606;2023-03-21T14:32:46;16.80;99.90
10411;DHT22;5251;52.112;8.606;2023-03-21T14:35:12;16.80;99.70
10411;DHT22;5251;52.112;8.606;2023-03-21T14:37:40;16.80;99.60
10411;DHT22;5251;52.112;8.606;2023-03-21T14:40:26;16.80;99.70
10411;DHT22;5251;52.112;8.606;2023-03-21T14:42:53;16.80;99.70
10411;DHT22;5251;52.112;8.606;2023-03-21T14:45:23;16.80;99.40
10411;DHT22;5251;52.112;8.606;2023-03-21T14:48:15;16.90;99.50
10411;DHT22;5251;52.112;8.606;2023-03-21T14:50:53;16.80;99.40
10411;DHT22;5251;52.112;8.606;2023-03-21T14:53:40;16.90;99.40
10411;DHT22;5251;52.112;8.606;2023-03-21T14:56:17;16.90;99.60
10411;DHT22;5251;52.112;8.606;2023-03-21T14:58:45;16.90;99.60
10411;DHT22;5251;52.112;8.606;2023-03-21T15:01:31;16.90;99.30
10411;DHT22;5251;52.112;8.606;2023-03-21T15:04:03;16.90;99.60
10411;DHT22;5251;52.112;8.606;2023-03-21T15:06:30;16.90;99.30
10411;DHT22;5251;52.112;8.606;2023-03-21T15:09:02;16.90;99.20
10411;DHT22;5251;52.112;8.606;2023-03-21T15:13:56;16.80;98.90
10411;DHT22;5251;52.112;8.606;2023-03-21T15:16:23;16.70;99.10
10411;DHT22;5251;52.112;8.606;2023-03-21T15:18:49;16.70;99.20
10411;DHT22;5251;52.112;8.606;2023-03-21T15:21:24;16.60;99.30
10411;DHT22;5251;52.112;8.606;2023-03-21T15:23:58;16.60;99.00
10411;DHT22;5251;52.112;8.606;2023-03-21T15:26:29;16.60;99.10
10411;DHT22;5251;52.112;8.606;2023-03-21T15:28:57;16.60;99.10
10411;DHT22;5251;52.112;8.606;2023-03-21T15:31:28;16.50;99.10
10411;DHT22;5251;52.112;8.606;2023-03-21T15:33:55;16.50;99.20
10411;DHT22;5251;52.112;8.606;2023-03-21T15:36:45;16.50;99.10
10411;DHT22;5251;52.112;8.606;2023-03-21T15:39:16;16.50;99.00
10411;DHT22;5251;52.112;8.606;2023-03-21T15:42:04;16.50;99.00
10411;DHT22;5251;52.112;8.606;2023-03-21T15:44:32;16.50;98.80
10411;DHT22;5251;52.112;8.606;2023-03-21T15:46:58;16.40;98.60
10411;DHT22;5251;52.112;8.606;2023-03-21T15:49:32;16.40;98.60
10411;DHT22;5251;52.112;8.606;2023-03-21T15:52:04;16.30;98.20
10411;DHT22;5251;52.112;8.606;2023-03-21T15:54:39;16.30;98.10
10411;DHT22;5251;52.112;8.606;2023-03-21T15:57:23;16.30;98.20
10411;DHT22;5251;52.112;8.606;2023-03-21T15:59:54;16.20;98.10
10411;DHT22;5251;52.112;8.606;2023-03-21T16:02:23;16.20;98.00
10411;DHT22;5251;52.112;8.606;2023-03-21T16:05:01;16.10;97.90
10411;DHT22;5251;52.112;8.606;2023-03-21T16:07:27;16.10;97.80
10411;DHT22;5251;52.112;8.606;2023-03-21T16:10:00;16.00;97.70
10411;DHT22;5251;52.112;8.606;2023-03-21T16:12:26;16.00;97.70
10411;DHT22;5251;52.112;8.606;2023-03-21T16:14:52;15.90;97.60
10411;DHT22;5251;52.112;8.606;2023-03-21T16:17:31;15.80;97.40
10411;DHT22;5251;52.112;8.606;2023-03-21T16:20:08;15.80;97.30
10411;DHT22;5251;52.112;8.606;2023-03-21T16:22:38;15.70;97.00
10411;DHT22;5251;52.112;8.606;2023-03-21T16:25:03;15.60;96.60
10411;DHT22;5251;52.112;8.606;2023-03-21T16:27:29;15.60;96.70
10411;DHT22;5251;52.112;8.606;2023-03-21T16:29:55;15.50;96.50
10411;DHT22;5251;52.112;8.606;2023-03-21T16:32:21;15.40;96.80
10411;DHT22;5251;52.112;8.606;2023-03-21T16:34:46;15.40;96.90
10411;DHT22;5251;52.112;8.606;2023-03-21T16:37:12;15.40;96.90
10411;DHT22;5251;52.112;8.606;2023-03-21T16:39:40;15.30;97.10
10411;DHT22;5251;52.112;8.606;2023-03-21T16:42:06;15.30;97.10
10411;DHT22;5251;52.112;8.606;2023-03-21T16:44:32;15.20;96.90
10411;DHT22;5251;52.112;8.606;2023-03-21T16:46:58;15.20;96.90
10411;DHT22;5251;52.112;8.606;2023-03-21T16:49:25;15.10;96.80
10411;DHT22;5251;52.112;8.606;2023-03-21T16:51:53;15.10;96.70
10411;DHT22;5251;52.112;8.606;2023-03-21T16:54:19;15.10;96.70
10411;DHT22;5251;52.112;8.606;2023-03-21T16:56:50;15.00;96.60
10411;DHT22;5251;52.112;8.606;2023-03-21T16:59:16;15.00;96.60
10411;DHT22;5251;52.112;8.606;2023-03-21T17:01:42;15.00;96.70
10411;DHT22;5251;52.112;8.606;2023-03-21T17:04:10;14.90;96.70
10411;DHT22;5251;52.112;8.606;2023-03-21T17:06:44;14.90;96.80
10411;DHT22;5251;52.112;8.606;2023-03-21T17:09:13;14.80;96.80
10411;DHT22;5251;52.112;8.606;2023-03-21T17:11:38;14.80;96.70
10411;DHT22;5251;52.112;8.606;2023-03-21T17:14:07;14.80;96.90
10411;DHT22;5251;52.112;8.606;2023-03-21T17:16:33;14.70;96.90
10411;DHT22;5251;52.112;8.606;2023-03-21T17:18:59;14.70;97.00
10411;DHT22;5251;52.112;8.606;2023-03-21T17:21:27;14.70;96.80
10411;DHT22;5251;52.112;8.606;2023-03-21T17:23:54;14.70;96.80
10411;DHT22;5251;52.112;8.606;2023-03-21T17:26:26;14.60;96.80
10411;DHT22;5251;52.112;8.606;2023-03-21T17:28:53;14.60;97.00
10411;DHT22;5251;52.112;8.606;2023-03-21T17:31:22;14.60;97.10
10411;DHT22;5251;52.112;8.606;2023-03-21T17:33:48;14.50;97.00
10411;DHT22;5251;52.112;8.606;2023-03-21T17:36:35;14.50;97.20
10411;DHT22;5251;52.112;8.606;2023-03-21T17:39:03;14.50;97.10
10411;DHT22;5251;52.112;8.606;2023-03-21T17:41:30;14.50;97.00
10411;DHT22;5251;52.112;8.606;2023-03-21T17:43:56;14.50;97.20